createdAt,value
2019-04-10T00:01:53.636Z,13.07
2019-04-10T00:04:23.049Z,13.67
2019-04-10T00:06:52.215Z,11.90
2019-04-10T00:09:21.049Z,13.13
2019-04-10T00:11:49.989Z,13.07
2019-04-10T00:14:18.601Z,12.10
2019-04-10T00:16:47.269Z,10.33
2019-04-10T00:19:15.751Z,12.70
2019-04-10T00:21:45.159Z,12.83
2019-04-10T00:24:13.842Z,13.20
2019-04-10T00:26:42.316Z,13.07
2019-04-10T00:29:10.753Z,12.60
2019-04-10T00:31:40.210Z,14.47
2019-04-10T00:34:09.441Z,12.30
2019-04-10T00:36:38.202Z,11.10
2019-04-10T00:39:08.626Z,11.93
2019-04-10T00:41:38.386Z,12.03
2019-04-10T00:44:07.821Z,15.60
2019-04-10T00:46:36.756Z,14.77
2019-04-10T00:49:05.232Z,13.03
2019-04-10T00:51:33.725Z,15.40
2019-04-10T00:54:02.229Z,13.37
2019-04-10T00:56:30.689Z,13.93
2019-04-10T00:58:59.739Z,14.83
2019-04-10T01:01:28.196Z,16.20
2019-04-10T01:03:56.670Z,16.03
2019-04-10T01:06:26.181Z,24.40
2019-04-10T01:08:55.213Z,26.23
2019-04-10T01:11:23.703Z,45.60
2019-04-10T01:13:53.617Z,53.10
2019-04-10T01:16:23.100Z,60.70
2019-04-10T01:18:51.676Z,58.53
2019-04-10T01:21:20.192Z,65.87
2019-04-10T01:23:49.107Z,65.13
2019-04-10T01:26:17.704Z,64.37
2019-04-10T01:28:47.102Z,65.00
2019-04-10T01:31:17.072Z,62.67
2019-04-10T01:33:46.428Z,62.47
2019-04-10T01:36:15.976Z,65.97
2019-04-10T01:38:44.547Z,63.77
2019-04-10T01:41:13.044Z,62.77
2019-04-10T01:43:41.471Z,63.43
2019-04-10T01:46:10.311Z,65.50
2019-04-10T01:48:39.728Z,69.00
2019-04-10T01:51:08.715Z,65.27
2019-04-10T01:53:37.688Z,68.37
2019-04-10T01:56:20.452Z,69.27
2019-04-10T01:58:37.654Z,64.87
2019-04-10T02:01:08.101Z,71.67
2019-04-10T02:03:40.378Z,68.50
2019-04-10T02:06:09.222Z,68.90
2019-04-10T02:08:38.236Z,67.13
2019-04-10T02:11:07.270Z,69.77
2019-04-10T02:13:36.083Z,70.40
2019-04-10T02:16:04.758Z,67.47
2019-04-10T02:18:33.257Z,64.73
2019-04-10T02:21:01.695Z,64.80
2019-04-10T02:23:30.239Z,64.10
2019-04-10T02:25:58.785Z,60.83
2019-04-10T02:28:27.255Z,63.37
2019-04-10T02:30:56.685Z,61.00
2019-04-10T02:33:25.517Z,61.97
2019-04-10T02:35:56.993Z,61.07
2019-04-10T02:38:40.092Z,60.90
2019-04-10T02:40:57.390Z,66.57
2019-04-10T02:43:27.287Z,63.10
2019-04-10T02:45:56.312Z,63.20
2019-04-10T02:48:27.479Z,61.90
2019-04-10T02:50:57.594Z,60.67
2019-04-10T02:53:27.628Z,58.50
2019-04-10T02:55:58.154Z,58.70
2019-04-10T02:58:26.977Z,58.43
2019-04-10T03:00:56.306Z,61.47
2019-04-10T03:03:25.490Z,55.27
2019-04-10T03:05:54.369Z,56.40
2019-04-10T03:08:37.123Z,53.53
2019-04-10T03:10:59.068Z,57.13
2019-04-10T03:13:23.920Z,58.30
2019-04-10T03:15:53.564Z,56.37
2019-04-10T03:18:22.998Z,56.10
2019-04-10T03:20:51.624Z,58.00
2019-04-10T03:23:21.058Z,62.50
2019-04-10T03:25:50.911Z,54.07
2019-04-10T03:28:19.555Z,54.20
2019-04-10T03:30:49.315Z,55.10
2019-04-10T03:33:31.093Z,58.17
2019-04-10T03:35:59.055Z,60.93
2019-04-10T03:38:27.495Z,59.13
2019-04-10T03:40:55.952Z,56.23
2019-04-10T03:43:24.438Z,59.43
2019-04-10T03:45:53.005Z,58.73
2019-04-10T03:48:21.482Z,54.37
2019-04-10T03:50:50.198Z,58.33
2019-04-10T03:53:20.164Z,54.07
2019-04-10T03:55:49.415Z,51.67
2019-04-10T03:58:19.679Z,54.30
2019-04-10T04:00:48.518Z,60.27
2019-04-10T04:03:18.292Z,59.70
2019-04-10T04:05:47.091Z,64.83
2019-04-10T04:08:15.539Z,61.63
2019-04-10T04:10:44.705Z,60.80
2019-04-10T04:13:13.410Z,59.20
2019-04-10T04:15:42.158Z,57.17
2019-04-10T04:18:10.976Z,54.80
2019-04-10T04:20:39.974Z,56.17
2019-04-10T04:23:09.310Z,56.60
2019-04-10T04:25:38.677Z,60.23
2019-04-10T04:28:07.182Z,53.97
2019-04-10T04:30:36.040Z,59.37
2019-04-10T04:33:04.853Z,59.03
2019-04-10T04:35:33.313Z,57.97
2019-04-10T04:38:02.549Z,59.40
2019-04-10T04:40:31.194Z,62.40
2019-04-10T04:43:00.149Z,60.70
2019-04-10T04:45:28.693Z,59.80
2019-04-10T04:47:57.626Z,59.43
2019-04-10T04:50:27.062Z,59.80
2019-04-10T04:52:55.683Z,61.13
2019-04-10T04:55:24.124Z,61.73
2019-04-10T04:57:53.479Z,56.80
2019-04-10T05:00:22.143Z,59.37
2019-04-10T05:02:55.722Z,59.03
2019-04-10T05:05:25.237Z,56.93
2019-04-10T05:07:59.327Z,62.87
2019-04-10T05:10:25.129Z,57.63
2019-04-10T05:12:54.047Z,58.90
2019-04-10T05:15:22.679Z,64.50
2019-04-10T05:17:51.802Z,64.90
2019-04-10T05:20:20.285Z,67.17
2019-04-10T05:22:49.214Z,63.30
2019-04-10T05:25:19.042Z,62.97
2019-04-10T05:27:49.022Z,64.57
2019-04-10T05:30:18.387Z,60.03
2019-04-10T05:32:47.316Z,66.40
2019-04-10T05:35:16.995Z,65.53
2019-04-10T05:37:46.293Z,59.80
2019-04-10T05:40:15.259Z,63.90
2019-04-10T05:42:44.971Z,63.23
2019-04-10T05:45:14.846Z,64.40
2019-04-10T05:47:44.455Z,69.97
2019-04-10T05:50:13.090Z,68.17
2019-04-10T05:52:41.532Z,68.50
2019-04-10T05:55:10.314Z,61.57
2019-04-10T05:57:38.908Z,58.67
2019-04-10T06:00:10.411Z,62.33
2019-04-10T06:02:39.821Z,62.73
2019-04-10T06:05:09.763Z,65.50
2019-04-10T06:07:38.307Z,63.27
2019-04-10T06:10:10.553Z,64.23
2019-04-10T06:12:39.552Z,62.30
2019-04-10T06:15:08.815Z,63.13
2019-04-10T06:17:38.468Z,64.90
2019-04-10T06:20:09.178Z,57.27
2019-04-10T06:22:38.868Z,58.80
2019-04-10T06:25:11.109Z,58.57
2019-04-10T06:27:40.819Z,64.33
2019-04-10T06:30:10.070Z,62.33
2019-04-10T06:32:39.644Z,60.17
2019-04-10T06:35:09.186Z,57.67
2019-04-10T06:37:38.108Z,56.70
2019-04-10T06:40:16.425Z,55.53
2019-04-10T06:42:46.172Z,55.27
2019-04-10T06:45:09.690Z,49.33
2019-04-10T06:47:39.903Z,57.20
2019-04-10T06:50:10.570Z,55.00
2019-04-10T06:52:39.278Z,51.13
2019-04-10T06:55:09.191Z,49.57
2019-04-10T06:57:46.872Z,50.77
2019-04-10T07:00:13.718Z,49.77
2019-04-10T07:02:41.093Z,50.70
2019-04-10T07:05:12.408Z,50.00
2019-04-10T07:07:50.915Z,47.97
2019-04-10T07:10:22.530Z,50.27
2019-04-10T07:12:42.074Z,43.93
2019-04-10T07:15:12.463Z,45.97
2019-04-10T07:17:41.867Z,37.87
2019-04-10T07:20:15.018Z,41.87
2019-04-10T07:22:46.536Z,46.47
2019-04-10T07:25:14.290Z,46.17
2019-04-10T07:27:44.071Z,42.13
2019-04-10T07:30:13.994Z,41.90
2019-04-10T07:32:47.173Z,41.60
2019-04-10T07:35:19.268Z,40.43
2019-04-10T07:37:44.817Z,42.90
2019-04-10T07:40:14.354Z,38.20
2019-04-10T07:42:43.383Z,41.50
2019-04-10T07:45:13.004Z,36.53
2019-04-10T07:47:42.020Z,39.20
2019-04-10T07:50:12.195Z,40.80
2019-04-10T07:52:41.415Z,35.03
2019-04-10T07:55:10.847Z,38.50
2019-04-10T07:57:40.503Z,37.93
2019-04-10T08:00:11.310Z,33.37
2019-04-10T08:02:40.576Z,34.97
2019-04-10T08:05:10.211Z,36.03
2019-04-10T08:07:39.305Z,35.60
2019-04-10T08:10:10.116Z,31.20
2019-04-10T08:12:45.992Z,29.87
2019-04-10T08:15:09.424Z,34.83
2019-04-10T08:17:38.870Z,30.17
2019-04-10T08:20:09.899Z,35.33
2019-04-10T08:22:39.341Z,32.00
2019-04-10T08:25:08.965Z,30.97
2019-04-10T08:27:38.465Z,32.70
2019-04-10T08:30:10.779Z,30.37
2019-04-10T08:32:50.829Z,30.47
2019-04-10T08:35:09.199Z,32.80
2019-04-10T08:37:38.925Z,37.00
2019-04-10T08:40:11.420Z,32.07
2019-04-10T08:42:43.438Z,27.27
2019-04-10T08:45:11.344Z,28.67
2019-04-10T08:47:40.168Z,28.80
2019-04-10T08:50:09.763Z,28.83
2019-04-10T08:52:39.084Z,32.07
2019-04-10T08:55:10.005Z,27.67
2019-04-10T08:57:38.842Z,29.93
2019-04-10T09:00:10.062Z,27.23
2019-04-10T09:02:38.786Z,30.57
2019-04-10T09:05:09.252Z,25.33
2019-04-10T09:07:38.283Z,26.47
2019-04-10T09:10:07.302Z,26.60
2019-04-10T09:12:35.760Z,23.57
2019-04-10T09:15:05.957Z,28.33
2019-04-10T09:17:35.430Z,29.73
2019-04-10T09:20:06.642Z,27.73
2019-04-10T09:22:55.162Z,25.10
2019-04-10T09:25:07.032Z,26.90
2019-04-10T09:27:35.940Z,24.17
2019-04-10T09:30:07.239Z,29.43
2019-04-10T09:32:36.790Z,23.97
2019-04-10T09:35:08.730Z,29.57
2019-04-10T09:37:37.959Z,24.67
2019-04-10T09:40:08.465Z,25.53
2019-04-10T09:42:36.916Z,27.33
2019-04-10T09:45:06.427Z,23.53
2019-04-10T09:47:34.918Z,23.37
2019-04-10T09:50:04.193Z,25.30
2019-04-10T09:52:32.647Z,25.07
2019-04-10T09:55:01.114Z,23.87
2019-04-10T09:57:29.904Z,26.90
2019-04-10T09:59:58.354Z,26.23
2019-04-10T10:02:27.456Z,25.43
2019-04-10T10:04:56.426Z,23.07
2019-04-10T10:07:24.856Z,23.77
2019-04-10T10:09:53.324Z,25.07
2019-04-10T10:12:21.767Z,21.67
2019-04-10T10:14:50.249Z,23.23
2019-04-10T10:17:18.704Z,22.03
2019-04-10T10:19:48.070Z,25.57
2019-04-10T10:22:16.906Z,21.97
2019-04-10T10:24:46.808Z,22.37
2019-04-10T10:27:15.684Z,24.67
2019-04-10T10:29:44.395Z,20.03
2019-04-10T10:32:12.928Z,22.47
2019-04-10T10:34:41.375Z,22.13
2019-04-10T10:37:10.752Z,22.30
2019-04-10T10:39:39.232Z,19.77
2019-04-10T10:42:07.826Z,21.73
2019-04-10T10:44:36.320Z,20.47
2019-04-10T10:47:06.201Z,21.83
2019-04-10T10:49:34.847Z,23.87
2019-04-10T10:52:12.315Z,19.00
2019-04-10T10:54:41.146Z,18.77
2019-04-10T10:57:10.934Z,18.67
2019-04-10T10:59:39.836Z,18.83
2019-04-10T11:02:08.717Z,17.20
2019-04-10T11:04:37.852Z,18.70
2019-04-10T11:07:06.992Z,20.20
2019-04-10T11:09:36.765Z,18.87
2019-04-10T11:12:16.491Z,18.70
2019-04-10T11:14:45.584Z,20.47
2019-04-10T11:17:14.242Z,19.63
2019-04-10T11:19:43.420Z,19.67
2019-04-10T11:22:14.419Z,20.87
2019-04-10T11:24:44.493Z,19.53
2019-04-10T11:27:14.315Z,18.60
2019-04-10T11:29:45.270Z,20.10
2019-04-10T11:32:16.344Z,20.30
2019-04-10T11:34:56.650Z,19.83
2019-04-10T11:39:56.576Z,19.23
2019-04-10T11:42:26.415Z,18.87
2019-04-10T11:44:55.502Z,19.53
2019-04-10T11:47:25.240Z,20.83
2019-04-10T11:49:57.186Z,19.33
2019-04-10T11:52:33.754Z,20.03
2019-04-10T11:55:05.106Z,20.10
2019-04-10T11:57:26.426Z,17.83
2019-04-10T11:59:56.944Z,17.63
2019-04-10T12:02:28.186Z,17.77
2019-04-10T12:07:58.477Z,19.87
2019-04-10T12:12:28.047Z,20.27
2019-04-10T12:14:57.892Z,17.03
2019-04-10T12:17:27.612Z,17.97
2019-04-10T12:20:09.625Z,16.90
2019-04-10T12:22:48.080Z,17.43
2019-04-10T12:25:16.858Z,15.97
2019-04-10T12:27:45.398Z,16.77
2019-04-10T12:30:15.182Z,17.20
2019-04-10T12:32:45.897Z,16.47
2019-04-10T12:35:15.044Z,15.90
2019-04-10T12:37:59.400Z,18.40
2019-04-10T12:40:21.534Z,16.17
2019-04-10T12:42:50.412Z,15.60
2019-04-10T12:45:20.031Z,15.43
2019-04-10T12:47:48.583Z,14.63
2019-04-10T12:50:17.064Z,16.63
2019-04-10T12:52:45.528Z,14.53
2019-04-10T12:55:14.477Z,16.23
2019-04-10T12:57:43.505Z,15.13
2019-04-10T13:00:16.000Z,15.13
2019-04-10T13:02:44.868Z,14.43
2019-04-10T13:05:13.836Z,20.37
2019-04-10T13:07:43.481Z,15.27
2019-04-10T13:10:12.832Z,14.43
2019-04-10T13:12:41.770Z,15.20
2019-04-10T13:15:11.583Z,15.03
2019-04-10T13:17:40.734Z,14.33
2019-04-10T13:20:11.661Z,14.93
2019-04-10T13:22:40.265Z,17.63
2019-04-10T13:25:09.940Z,15.17
2019-04-10T13:27:39.483Z,16.00
2019-04-10T13:30:12.914Z,14.17
2019-04-10T13:32:42.438Z,13.97
2019-04-10T13:35:11.453Z,14.60
2019-04-10T13:37:41.299Z,15.03
2019-04-10T13:40:11.247Z,14.40
2019-04-10T13:42:41.068Z,14.33
2019-04-10T13:45:11.062Z,17.07
2019-04-10T13:47:40.778Z,15.67
2019-04-10T13:50:10.653Z,16.07
2019-04-10T13:52:40.931Z,17.27
2019-04-10T13:55:18.948Z,15.03
2019-04-10T13:57:47.721Z,16.13
2019-04-10T14:00:39.850Z,14.90
2019-04-10T14:03:06.923Z,18.00
2019-04-10T14:05:35.470Z,16.60
2019-04-10T14:08:04.868Z,19.27
2019-04-10T14:10:35.190Z,18.90
2019-04-10T14:13:03.805Z,18.43
2019-04-10T14:15:33.721Z,14.27
2019-04-10T14:18:02.426Z,15.33
2019-04-10T14:20:31.248Z,15.60
2019-04-10T14:23:16.751Z,16.43
2019-04-10T14:26:02.270Z,14.47
2019-04-10T14:28:33.343Z,14.33
2019-04-10T14:31:04.208Z,15.40
2019-04-10T14:33:33.075Z,14.10
2019-04-10T14:36:01.973Z,14.30
2019-04-10T14:38:30.774Z,14.57
2019-04-10T14:40:59.531Z,19.83
2019-04-10T14:43:28.443Z,14.83
2019-04-10T14:45:57.647Z,13.57
2019-04-10T14:48:26.229Z,14.43
2019-04-10T14:50:54.729Z,13.67
2019-04-10T14:53:23.266Z,13.40
2019-04-10T14:55:51.737Z,14.00
2019-04-10T14:58:25.178Z,17.57
2019-04-10T15:00:50.976Z,15.33
2019-04-10T15:03:22.362Z,16.40
2019-04-10T15:05:53.955Z,15.27
2019-04-10T15:08:21.775Z,15.43
2019-04-10T15:10:50.590Z,15.03
2019-04-10T15:13:21.257Z,16.20
2019-04-10T15:15:50.289Z,13.87
2019-04-10T15:18:19.109Z,15.07
2019-04-10T15:20:47.729Z,14.63
2019-04-10T15:23:16.182Z,14.67
2019-04-10T15:25:44.636Z,19.10
2019-04-10T15:28:13.968Z,13.83
2019-04-10T15:30:42.806Z,15.07
2019-04-10T15:33:12.137Z,15.03
2019-04-10T15:35:41.811Z,14.57
2019-04-10T15:38:11.617Z,14.43
2019-04-10T15:40:42.009Z,16.30
2019-04-10T15:43:10.816Z,16.63
2019-04-10T15:45:39.966Z,19.30
2019-04-10T15:48:08.772Z,17.60
2019-04-10T15:50:37.255Z,15.33
2019-04-10T15:53:06.170Z,18.67
2019-04-10T15:55:34.728Z,15.00
2019-04-10T15:58:04.057Z,18.47
2019-04-10T16:00:34.976Z,18.20
2019-04-10T16:03:04.874Z,16.57
2019-04-10T16:05:33.485Z,15.63
2019-04-10T16:08:02.990Z,17.83
2019-04-10T16:10:33.946Z,15.10
2019-04-10T16:13:16.515Z,17.93
2019-04-10T16:15:45.207Z,19.07
2019-04-10T16:18:15.638Z,13.87
2019-04-10T16:20:45.883Z,17.00
2019-04-10T16:23:18.944Z,13.00
2019-04-10T16:25:54.459Z,10.63
2019-04-10T16:28:23.350Z,12.67
2019-04-10T16:30:51.817Z,17.47
2019-04-10T16:33:20.288Z,9.60
2019-04-10T16:35:48.790Z,14.30
2019-04-10T16:38:17.348Z,10.20
2019-04-10T16:40:45.992Z,13.30
2019-04-10T16:43:15.903Z,12.03
2019-04-10T16:45:44.465Z,11.90
2019-04-10T16:48:13.462Z,9.40
2019-04-10T16:50:41.925Z,9.40
2019-04-10T16:53:11.636Z,11.70
2019-04-10T16:55:41.027Z,9.77
2019-04-10T16:58:09.794Z,10.10
2019-04-10T17:00:39.598Z,9.33
2019-04-10T17:03:09.326Z,10.63
2019-04-10T17:05:39.660Z,11.00
2019-04-10T17:08:09.562Z,10.43
2019-04-10T17:10:38.707Z,10.33
2019-04-10T17:13:08.835Z,13.13
2019-04-10T17:15:37.566Z,10.47
2019-04-10T17:18:06.644Z,9.80
2019-04-10T17:20:36.215Z,11.77
2019-04-10T17:23:06.413Z,15.83
2019-04-10T17:25:35.938Z,15.03
2019-04-10T17:28:04.503Z,9.63
2019-04-10T17:30:33.853Z,11.93
2019-04-10T17:33:13.168Z,14.10
2019-04-10T17:35:43.355Z,10.20
2019-04-10T17:38:12.146Z,11.33
2019-04-10T17:40:48.226Z,11.33
2019-04-10T17:43:11.113Z,10.43
2019-04-10T17:45:39.601Z,9.47
2019-04-10T17:48:09.389Z,9.50
2019-04-10T17:50:39.358Z,10.40
2019-04-10T17:53:15.221Z,14.87
2019-04-10T17:55:44.689Z,11.63
2019-04-10T17:58:13.653Z,10.80
2019-04-10T18:01:25.036Z,11.57
2019-04-10T18:03:57.178Z,12.70
2019-04-10T18:06:27.681Z,11.97
2019-04-10T18:08:57.046Z,10.77
2019-04-10T18:11:25.596Z,11.50
2019-04-10T18:13:55.351Z,13.73
2019-04-10T18:16:23.817Z,12.47
2019-04-10T18:18:52.233Z,12.37
2019-04-10T18:21:20.659Z,11.93
2019-04-10T18:23:49.537Z,13.33
2019-04-10T18:26:28.586Z,11.13
2019-04-10T18:28:59.454Z,11.70
2019-04-10T18:31:29.470Z,17.53
2019-04-10T18:33:58.706Z,13.27
2019-04-10T18:36:27.916Z,13.33
2019-04-10T18:38:56.332Z,17.53
2019-04-10T18:41:24.763Z,17.57
2019-04-10T18:43:53.174Z,14.57
2019-04-10T18:46:22.427Z,13.93
2019-04-10T18:48:51.386Z,16.17
2019-04-10T18:51:19.949Z,14.10
2019-04-10T18:53:51.158Z,12.70
2019-04-10T18:56:20.805Z,13.07
2019-04-10T18:58:54.970Z,13.83
2019-04-10T19:01:31.417Z,13.20
2019-04-10T19:04:04.536Z,15.13
2019-04-10T19:06:49.713Z,13.67
2019-04-10T19:09:24.569Z,15.90
2019-04-10T19:11:54.800Z,15.90
2019-04-10T19:14:24.663Z,15.23
2019-04-10T19:16:55.150Z,12.87
2019-04-10T19:19:28.291Z,12.97
2019-04-10T19:22:00.056Z,15.03
2019-04-10T19:24:32.396Z,12.73
2019-04-10T19:27:02.135Z,13.63
2019-04-10T19:29:35.717Z,12.73
2019-04-10T19:32:06.269Z,14.87
2019-04-10T19:34:45.819Z,15.33
2019-04-10T19:37:14.603Z,15.50
2019-04-10T19:39:44.798Z,13.90
2019-04-10T19:42:15.339Z,14.40
2019-04-10T19:44:45.578Z,15.57
2019-04-10T19:47:14.765Z,16.40
2019-04-10T19:49:44.556Z,15.27
2019-04-10T19:52:14.311Z,17.53
2019-04-10T19:54:44.250Z,15.67
2019-04-10T19:57:15.334Z,16.47
2019-04-10T19:59:46.041Z,16.33
2019-04-10T20:02:19.056Z,18.23
2019-04-10T20:04:48.614Z,15.97
2019-04-10T20:07:17.297Z,16.87
2019-04-10T20:09:46.441Z,15.17
2019-04-10T20:12:16.063Z,15.37
2019-04-10T20:14:44.803Z,16.73
2019-04-10T20:17:13.558Z,19.33
2019-04-10T20:19:42.590Z,16.53
2019-04-10T20:22:11.206Z,17.40
2019-04-10T20:24:39.617Z,13.53
2019-04-10T20:27:09.921Z,15.03
2019-04-10T20:29:39.331Z,15.50
2019-04-10T20:32:07.965Z,20.27
2019-04-10T20:34:37.783Z,16.10
2019-04-10T20:37:09.593Z,16.30
2019-04-10T20:39:39.252Z,16.23
2019-04-10T20:42:07.822Z,14.50
2019-04-10T20:44:36.636Z,20.10
2019-04-10T20:47:05.104Z,16.47
2019-04-10T20:49:34.251Z,14.47
2019-04-10T20:52:04.142Z,16.33
2019-04-10T20:54:42.724Z,18.17
2019-04-10T20:57:11.157Z,16.17
2019-04-10T20:59:40.437Z,19.17
2019-04-10T21:02:09.722Z,20.13
2019-04-10T21:04:39.536Z,17.73
2019-04-10T21:07:08.449Z,18.07
2019-04-10T21:09:36.897Z,16.07
2019-04-10T21:12:10.473Z,17.27
2019-04-10T21:14:35.926Z,18.40
2019-04-10T21:17:04.824Z,18.00
2019-04-10T21:19:33.499Z,18.73
2019-04-10T21:22:02.069Z,20.30
2019-04-10T21:24:31.474Z,17.57
2019-04-10T21:27:01.219Z,17.33
2019-04-10T21:29:32.024Z,20.23
2019-04-10T21:32:05.188Z,18.60
2019-04-10T21:34:36.919Z,15.77
2019-04-10T21:37:06.097Z,16.00
2019-04-10T21:39:35.974Z,17.97
2019-04-10T21:42:14.823Z,16.73
2019-04-10T21:44:35.136Z,15.77
2019-04-10T21:47:03.893Z,17.07
2019-04-10T21:49:32.416Z,18.03
2019-04-10T21:52:02.077Z,16.73
2019-04-10T21:54:31.374Z,21.43
2019-04-10T21:56:59.912Z,18.37
2019-04-10T21:59:28.993Z,17.40
2019-04-10T22:01:57.581Z,15.90
2019-04-10T22:04:27.270Z,17.20
2019-04-10T22:07:10.024Z,16.40
2019-04-10T22:09:43.257Z,15.40
2019-04-10T22:12:24.014Z,18.30
2019-04-10T22:14:43.913Z,16.03
2019-04-10T22:17:13.131Z,18.83
2019-04-10T22:19:43.000Z,17.93
2019-04-10T22:22:12.803Z,21.83
2019-04-10T22:24:42.653Z,21.67
2019-04-10T22:27:11.968Z,17.67
2019-04-10T22:29:40.454Z,19.60
2019-04-10T22:32:08.998Z,16.53
2019-04-10T22:34:38.401Z,20.43
2019-04-10T22:37:07.264Z,24.03
2019-04-10T22:39:35.924Z,16.73
2019-04-10T22:42:05.359Z,15.70
2019-04-10T22:44:40.219Z,15.80
2019-04-10T22:47:05.097Z,15.37
2019-04-10T22:49:34.874Z,16.90
2019-04-10T22:52:04.614Z,15.17
2019-04-10T22:54:33.200Z,14.33
2019-04-10T22:57:02.607Z,13.10
2019-04-10T22:59:32.446Z,10.77
2019-04-10T23:02:07.390Z,17.23
2019-04-10T23:04:32.573Z,11.33
2019-04-10T23:07:01.760Z,10.43
2019-04-10T23:09:30.590Z,10.10
2019-04-10T23:12:00.195Z,9.73
2019-04-10T23:14:29.018Z,8.90
2019-04-10T23:16:57.742Z,8.63
2019-04-10T23:19:26.227Z,10.83
2019-04-10T23:21:54.701Z,10.27
2019-04-10T23:24:23.519Z,11.57
2019-04-10T23:26:51.939Z,8.77
2019-04-10T23:29:20.386Z,10.97
2019-04-10T23:31:49.792Z,9.63
2019-04-10T23:34:18.880Z,9.97
2019-04-10T23:36:48.636Z,8.47
2019-04-10T23:39:18.260Z,9.70
2019-04-10T23:41:47.649Z,8.33
2019-04-10T23:44:16.844Z,11.73
2019-04-10T23:46:45.465Z,7.90
2019-04-10T23:49:14.130Z,8.20
2019-04-10T23:51:43.283Z,9.20
2019-04-10T23:54:13.149Z,8.53
2019-04-10T23:56:41.978Z,8.13
2019-04-10T23:59:10.733Z,7.90
